Ninaview, Colorado
Current Conditions -  °F | °C
As of 5:53 PM on Tuesday 21 Oct 2014 (Local Time) from KLHX Reporting Station
Clear Clear  
Wind Chill: 22°   Ceiling: Unl
Heat Index: 22°   Visibility: 10mi
Dew Point:   Wind: 10mph
Humidity: 34%   Direction: 180°S
Pressure: 29.91"   Gusts: NA
Location:  37.8567°N, 103.111°W
Report Text: KLHX 212353Z AUTO 18009KT 10SM CLR 22/06 A2991 RMK AO2 SLP091 T02220056 10272 20222 56005
Loading
Personal Weather Stations






























Interactive Weather Map
Tropical Storm Tracking
New forecast layout! Learn more

10-Day Weather Forecast

Advertisements
Track Severe Weather on mobile